Time;durP1;ratioP1;P1;durP2;ratioP2;P2;SDS_P1;SDS_P2;PMS_P1;PMS_P2;Temp;Humidity;BMP_temperature;BMP_pressure;BME280_temperature;BME280_humidity;BME280_pressure;Samples;Min_cycle;Max_cycle;Signal;HPM_P1;HPM_P2
2023/01/05 00:01:35;;;;;;;;;;;;;;;10.04;78.85;100596.22;5093760;28;19916;-37
2023/01/05 00:04:00;;;;;;;;;;;;;;;9.93;78.50;100594.78;5093029;28;20280;-38
2023/01/05 00:06:26;;;;;;;;;;;;;;;9.67;79.66;100590.69;5093548;28;20003;-37
2023/01/05 00:08:51;;;;;;;;;;;;;;;9.73;79.62;100594.47;5093613;28;19912;-37
2023/01/05 00:22:32;;;;;;;;;;;;;;;9.81;79.43;100591.72;5093327;28;19965;-37
2023/01/05 00:24:57;;;;;;;;;;;;;;;9.61;80.71;100583.38;5093313;28;20433;-37
2023/01/05 00:27:23;;;;;;;;;;;;;;;9.71;80.06;100588.47;5093308;28;19951;-37
2023/01/05 00:29:48;;;;;;;;;;;;;;;9.72;80.03;100588.28;5093282;28;19945;-37
2023/01/05 00:32:13;;;;;;;;;;;;;;;9.76;79.49;100578.97;5093049;28;20286;-37
2023/01/05 00:34:38;;;;;;;;;;;;;;;10.38;78.41;100582.47;5093227;28;19991;-37
2023/01/05 00:37:04;;;;;;;;;;;;;;;10.33;78.20;100584.84;5092941;28;19918;-37
2023/01/05 00:39:29;;;;;;;;;;;;;;;10.03;78.87;100581.25;5091786;28;19934;-37
2023/01/05 00:41:54;;;;;;;;;;;;;;;10.35;78.00;100577.50;5092807;28;19962;-36
2023/01/05 00:44:20;;;;;;;;;;;;;;;10.21;78.68;100583.59;5092805;28;19912;-37
2023/01/05 00:46:45;;;;;;;;;;;;;;;9.93;79.30;100582.31;5092616;28;19919;-36
2023/01/05 00:49:10;;;;;;;;;;;;;;;9.90;79.98;100587.16;5092628;28;20326;-36
2023/01/05 00:51:35;;;;;;;;;;;;;;;9.70;80.26;100581.50;5092662;28;19969;-36
2023/01/05 00:54:01;;;;;;;;;;;;;;;10.42;79.95;100577.59;5092608;28;20381;-37
2023/01/05 00:56:26;;;;;;;;;;;;;;;10.37;78.89;100573.63;5092409;28;20003;-37
2023/01/05 00:58:52;;;;;;;;;;;;;;;9.98;78.98;100574.63;5092575;28;19912;-37
2023/01/05 01:01:17;;;;;;;;;;;;;;;9.91;79.47;100570.22;5091984;28;20056;-37
2023/01/05 01:03:42;;;;;;;;;;;;;;;9.64;80.65;100572.41;5092537;28;20365;-37
2023/01/05 01:06:08;;;;;;;;;;;;;;;9.53;80.97;100570.16;5092437;28;20064;-37
2023/01/05 01:08:33;;;;;;;;;;;;;;;9.82;80.08;100563.31;5092363;28;19912;-36
2023/01/05 01:11:02;;;;;;;;;;;;;;;9.93;81.13;100574.34;5092472;28;19919;-37
2023/01/05 01:13:27;;;;;;;;;;;;;;;10.13;80.79;100561.38;5092422;28;19916;-37
2023/01/05 01:15:53;;;;;;;;;;;;;;;9.88;79.70;100549.28;5092183;28;19994;-37
2023/01/05 01:18:18;;;;;;;;;;;;;;;9.78;79.68;100544.22;5091888;28;20026;-38
2023/01/05 01:20:43;;;;;;;;;;;;;;;9.63;80.24;100557.47;5092492;28;19920;-38
2023/01/05 01:23:08;;;;;;;;;;;;;;;9.56;80.67;100549.38;5092192;28;19955;-38
2023/01/05 01:25:36;;;;;;;;;;;;;;;9.49;80.61;100553.75;5092140;28;19912;-37
2023/01/05 01:28:01;;;;;;;;;;;;;;;9.51;80.89;100546.41;5092047;28;19912;-37
2023/01/05 01:30:27;;;;;;;;;;;;;;;9.96;81.38;100539.44;5091895;28;19912;-37
2023/01/05 01:32:52;;;;;;;;;;;;;;;9.96;81.45;100539.44;5090363;28;19919;-38
2023/01/05 01:35:18;;;;;;;;;;;;;;;9.74;79.62;100533.13;5091776;28;19912;-38
2023/01/05 01:37:43;;;;;;;;;;;;;;;9.60;79.61;100536.56;5092095;28;19919;-35
2023/01/05 01:40:09;;;;;;;;;;;;;;;9.42;81.24;100531.53;5092130;28;20384;-37
2023/01/05 01:42:34;;;;;;;;;;;;;;;9.33;81.31;100529.97;5090379;28;19920;-37
2023/01/05 01:45:00;;;;;;;;;;;;;;;9.55;82.30;100526.47;5091791;28;19948;-36
2023/01/05 01:47:32;;;;;;;;;;;;;;;9.96;82.02;100517.34;5091788;28;20015;-37
2023/01/05 01:50:02;;;;;;;;;;;;;;;9.75;79.25;100510.88;5091530;28;19919;-37
2023/01/05 01:52:28;;;;;;;;;;;;;;;9.62;79.50;100507.97;5091721;28;19969;-37
2023/01/05 01:54:54;;;;;;;;;;;;;;;9.37;80.37;100505.50;5091655;28;19916;-38
2023/01/05 01:57:20;;;;;;;;;;;;;;;9.28;82.04;100505.75;5091531;28;19920;-37
2023/01/05 01:59:45;;;;;;;;;;;;;;;9.19;81.99;100505.81;5091526;28;19912;-38
2023/01/05 02:02:11;;;;;;;;;;;;;;;9.96;80.84;100504.88;5091343;28;20231;-38
2023/01/05 02:04:37;;;;;;;;;;;;;;;9.61;81.66;100497.53;5091685;28;20422;-38
2023/01/05 02:07:03;;;;;;;;;;;;;;;9.61;78.94;100502.84;5091746;28;20364;-38
2023/01/05 02:09:28;;;;;;;;;;;;;;;9.44;80.06;100496.81;5091679;28;19912;-38
2023/01/05 02:12:03;;;;;;;;;;;;;;;8.93;81.71;100481.38;5091544;28;19913;-38
2023/01/05 02:14:36;;;;;;;;;;;;;;;8.78;83.33;100494.59;5091424;28;19962;-38
2023/01/05 02:17:28;;;;;;;;;;;;;;;8.82;85.87;100492.41;5091108;28;20010;-38
2023/01/05 02:20:02;;;;;;;;;;;;;;;9.46;82.95;100484.19;5091814;28;19927;-38
2023/01/05 02:22:34;;;;;;;;;;;;;;;9.29;83.05;100470.19;5091600;28;19917;-38
2023/01/05 02:25:18;;;;;;;;;;;;;;;8.96;83.60;100471.25;5091525;28;19999;-38
2023/01/05 02:28:00;;;;;;;;;;;;;;;8.90;83.98;100479.91;5090711;28;19968;-38
2023/01/05 02:30:25;;;;;;;;;;;;;;;8.88;84.41;100471.31;5091462;28;19990;-38
2023/01/05 02:33:09;;;;;;;;;;;;;;;8.95;82.80;100477.56;5091002;28;20391;-38
2023/01/05 02:35:41;;;;;;;;;;;;;;;8.61;84.21;100473.44;5091083;28;19919;-37
2023/01/05 02:38:06;;;;;;;;;;;;;;;8.70;85.68;100479.53;5091220;28;19912;-37
2023/01/05 02:40:36;;;;;;;;;;;;;;;9.60;83.68;100478.09;5091712;28;19922;-38
2023/01/05 02:43:02;;;;;;;;;;;;;;;9.35;82.31;100475.66;5094537;28;20062;-37
2023/01/05 02:45:28;;;;;;;;;;;;;;;9.26;81.13;100476.69;5095082;28;19939;-37
2023/01/05 02:47:54;;;;;;;;;;;;;;;8.93;82.71;100465.44;5095239;28;20408;-37
2023/01/05 02:50:25;;;;;;;;;;;;;;;8.76;83.45;100478.00;5094665;28;19924;-37
2023/01/05 02:52:53;;;;;;;;;;;;;;;8.56;83.90;100466.97;5094386;28;20351;-44
2023/01/05 02:55:22;;;;;;;;;;;;;;;8.63;83.98;100472.44;5094154;28;19912;-43
2023/01/05 02:57:53;;;;;;;;;;;;;;;9.42;82.89;100465.13;5093449;28;19912;-43
2023/01/05 03:00:38;;;;;;;;;;;;;;;9.21;81.90;100460.47;5094736;28;19912;-43
2023/01/05 03:03:08;;;;;;;;;;;;;;;8.81;83.19;100459.72;5094404;28;19916;-42
2023/01/05 03:05:38;;;;;;;;;;;;;;;8.48;84.31;100453.75;5094880;28;19938;-43
2023/01/05 03:08:09;;;;;;;;;;;;;;;8.36;85.07;100462.06;5094653;28;19923;-43
2023/01/05 03:13:41;;;;;;;;;;;;;;;9.22;83.28;100446.19;5094813;28;19997;-43
2023/01/05 03:16:12;;;;;;;;;;;;;;;8.97;83.38;100449.00;5094395;28;19912;-43
2023/01/05 03:19:34;;;;;;;;;;;;;;;8.49;83.85;100450.09;5094353;28;19986;-42
2023/01/05 03:21:26;;;;;;;;;;;;;;;8.19;84.34;100442.72;5092900;28;19931;-43
2023/01/05 03:37:41;;;;;;;;;;;;;;;8.15;85.54;100433.47;5074011;28;20288;-43
2023/01/05 03:40:11;;;;;;;;;;;;;;;8.27;84.84;100435.75;5073638;28;19912;-43
2023/01/05 03:42:37;;;;;;;;;;;;;;;8.11;85.52;100436.59;5079212;28;19916;-44
2023/01/05 03:45:03;;;;;;;;;;;;;;;7.96;86.54;100439.97;5112423;28;20076;-41
2023/01/05 03:47:29;;;;;;;;;;;;;;;7.98;86.82;100431.84;5114190;28;19919;-42
2023/01/05 03:49:54;;;;;;;;;;;;;;;7.94;87.69;100422.56;5114232;28;19912;-44
2023/01/05 03:52:19;;;;;;;;;;;;;;;7.91;88.16;100422.94;5113966;28;20351;-42
2023/01/05 03:54:44;;;;;;;;;;;;;;;7.87;87.92;100425.09;5113096;28;19919;-43
2023/01/05 03:57:10;;;;;;;;;;;;;;;7.84;87.92;100420.09;5114094;28;20360;-42
2023/01/05 03:59:35;;;;;;;;;;;;;;;7.65;90.21;100421.31;5114023;28;19951;-43
2023/01/05 04:02:00;;;;;;;;;;;;;;;7.65;90.35;100421.31;5114079;28;19915;-42
2023/01/05 04:04:25;;;;;;;;;;;;;;;7.79;88.48;100422.47;5113804;28;19974;-43
2023/01/05 04:06:51;;;;;;;;;;;;;;;7.96;88.53;100421.41;5114116;28;20447;-42
2023/01/05 04:09:16;;;;;;;;;;;;;;;7.89;88.28;100416.97;5114027;28;19915;-43
2023/01/05 04:11:41;;;;;;;;;;;;;;;7.88;89.46;100416.16;5109844;28;19947;-43
2023/01/05 04:14:06;;;;;;;;;;;;;;;7.82;89.12;100412.34;5093347;28;19916;-43
2023/01/05 04:16:32;;;;;;;;;;;;;;;7.91;89.21;100417.63;5090538;28;19912;-42
2023/01/05 04:18:57;;;;;;;;;;;;;;;7.76;90.24;100407.72;5097688;28;19946;-41
2023/01/05 04:21:22;;;;;;;;;;;;;;;7.72;90.31;100403.75;5102427;28;20346;-42
2023/01/05 04:23:48;;;;;;;;;;;;;;;7.74;91.08;100404.41;5100810;28;19912;-43
2023/01/05 04:26:14;;;;;;;;;;;;;;;7.75;89.96;100398.13;5089163;28;19968;-43
2023/01/05 04:28:39;;;;;;;;;;;;;;;7.76;90.81;100399.75;5093391;28;20002;-42
2023/01/05 04:31:04;;;;;;;;;;;;;;;7.88;90.27;100397.59;5093104;28;20057;-43
2023/01/05 04:33:30;;;;;;;;;;;;;;;7.78;90.82;100400.41;5093123;28;19923;-43
2023/01/05 04:35:55;;;;;;;;;;;;;;;7.99;90.03;100399.03;5092229;28;19916;-42
2023/01/05 04:38:20;;;;;;;;;;;;;;;7.95;90.09;100398.56;5092946;28;19912;-43
2023/01/05 04:40:49;;;;;;;;;;;;;;;7.97;89.96;100395.72;5092274;28;19981;-42
2023/01/05 04:43:15;;;;;;;;;;;;;;;7.83;90.54;100402.56;5091601;28;19947;-42
2023/01/05 04:45:40;;;;;;;;;;;;;;;7.88;89.69;100408.19;5091779;28;19947;-42
2023/01/05 04:48:05;;;;;;;;;;;;;;;7.81;90.26;100404.56;5091201;28;19912;-43
2023/01/05 04:50:31;;;;;;;;;;;;;;;7.72;90.96;100393.16;5091237;28;20034;-43
2023/01/05 04:52:56;;;;;;;;;;;;;;;7.84;90.46;100396.25;5090965;28;19912;-42
2023/01/05 04:55:21;;;;;;;;;;;;;;;7.86;91.19;100396.91;5091123;28;19912;-43
2023/01/05 04:57:47;;;;;;;;;;;;;;;7.85;91.04;100389.16;5092498;28;19912;-43
2023/01/05 05:00:12;;;;;;;;;;;;;;;7.89;90.01;100390.47;5092873;28;20388;-42
2023/01/05 05:02:37;;;;;;;;;;;;;;;7.74;90.42;100385.84;5092453;28;19926;-43
2023/01/05 05:05:03;;;;;;;;;;;;;;;7.87;89.41;100384.50;5092267;28;20367;-42
2023/01/05 05:07:28;;;;;;;;;;;;;;;7.86;90.14;100375.72;5092388;28;19919;-42
2023/01/05 05:09:53;;;;;;;;;;;;;;;7.75;89.86;100379.56;5092235;28;20006;-44
2023/01/05 05:12:19;;;;;;;;;;;;;;;7.68;90.59;100373.28;5092334;28;19912;-43
2023/01/05 05:14:47;;;;;;;;;;;;;;;7.64;90.79;100371.97;5092523;28;20391;-44
2023/01/05 05:17:13;;;;;;;;;;;;;;;7.62;90.76;100379.28;5091856;28;19923;-44
2023/01/05 05:19:39;;;;;;;;;;;;;;;7.56;91.29;100375.47;5092164;28;19924;-43
2023/01/05 05:22:04;;;;;;;;;;;;;;;7.45;91.57;100378.47;5091986;28;19916;-43
2023/01/05 05:24:29;;;;;;;;;;;;;;;7.65;90.81;100373.63;5091800;28;20409;-43
2023/01/05 05:26:56;;;;;;;;;;;;;;;7.54;91.67;100380.13;5092104;28;20294;-42
2023/01/05 05:29:21;;;;;;;;;;;;;;;7.57;90.98;100377.09;5091754;28;20316;-40
2023/01/05 05:31:47;;;;;;;;;;;;;;;7.76;89.74;100375.91;5091627;28;19912;-41
2023/01/05 05:34:12;;;;;;;;;;;;;;;7.65;89.77;100376.25;5092227;28;19962;-43
2023/01/05 05:36:37;;;;;;;;;;;;;;;7.49;90.76;100368.38;5091616;28;19950;-43
2023/01/05 05:39:03;;;;;;;;;;;;;;;7.32;91.62;100373.66;5091914;28;20279;-43
2023/01/05 05:41:28;;;;;;;;;;;;;;;7.30;91.69;100364.25;5091606;28;20055;-42
2023/01/05 05:43:53;;;;;;;;;;;;;;;7.38;93.37;100358.94;5091893;28;19965;-43
2023/01/05 05:46:18;;;;;;;;;;;;;;;7.35;92.17;100354.81;5091795;28;19912;-42
2023/01/05 05:48:44;;;;;;;;;;;;;;;8.29;93.92;100354.19;5090916;28;19912;-46
2023/01/05 05:51:09;;;;;;;;;;;;;;;7.99;89.59;100357.44;5089247;28;19961;-43
2023/01/05 05:53:34;;;;;;;;;;;;;;;7.91;90.52;100357.50;5091537;28;19912;-43
2023/01/05 05:55:59;;;;;;;;;;;;;;;7.75;90.59;100357.53;5091411;28;20383;-43
2023/01/05 05:58:25;;;;;;;;;;;;;;;7.70;89.82;100357.22;5091687;28;19916;-41
2023/01/05 06:00:50;;;;;;;;;;;;;;;7.53;89.86;100359.09;5091112;28;19916;-43
2023/01/05 06:03:16;;;;;;;;;;;;;;;7.29;90.17;100355.50;5091412;28;19942;-43
2023/01/05 06:05:41;;;;;;;;;;;;;;;7.15;90.78;100364.09;5091413;28;19912;-44
2023/01/05 06:08:06;;;;;;;;;;;;;;;6.99;91.00;100365.75;5091028;28;19919;-42
2023/01/05 06:10:32;;;;;;;;;;;;;;;6.93;91.94;100362.91;5091927;28;20360;-42
2023/01/05 06:12:57;;;;;;;;;;;;;;;6.98;88.82;100371.19;5090942;28;20332;-43
2023/01/05 06:15:22;;;;;;;;;;;;;;;6.63;90.66;100363.38;5091139;28;19916;-44
2023/01/05 06:17:48;;;;;;;;;;;;;;;6.69;91.73;100371.66;5093911;28;19924;-43
2023/01/05 06:20:13;;;;;;;;;;;;;;;6.84;92.97;100367.38;5095658;28;19916;-44
2023/01/05 06:22:38;;;;;;;;;;;;;;;7.29;92.12;100368.72;5095569;28;19916;-43
2023/01/05 06:25:04;;;;;;;;;;;;;;;7.31;90.51;100371.19;5095656;28;19959;-43
2023/01/05 06:27:29;;;;;;;;;;;;;;;7.20;90.19;100375.00;5095517;28;19912;-43
2023/01/05 06:29:54;;;;;;;;;;;;;;;7.34;90.17;100371.69;5095410;28;19912;-42
2023/01/05 06:32:20;;;;;;;;;;;;;;;7.49;89.18;100376.31;5095420;28;19912;-44
2023/01/05 06:34:45;;;;;;;;;;;;;;;7.74;87.23;100372.59;5095692;28;19959;-43
2023/01/05 06:37:10;;;;;;;;;;;;;;;7.66;88.10;100374.47;5095641;28;19919;-43
2023/01/05 06:39:36;;;;;;;;;;;;;;;7.70;88.04;100368.66;5095280;28;20021;-43
2023/01/05 06:42:01;;;;;;;;;;;;;;;7.94;87.02;100370.41;5095036;28;20289;-44
2023/01/05 06:44:26;;;;;;;;;;;;;;;8.17;86.20;100359.06;5095262;28;19912;-42
2023/01/05 06:46:51;;;;;;;;;;;;;;;8.21;86.10;100353.22;5095365;28;19923;-42
2023/01/05 06:49:17;;;;;;;;;;;;;;;8.49;85.57;100358.09;5094923;28;20371;-43
2023/01/05 06:51:42;;;;;;;;;;;;;;;8.53;84.86;100361.19;5094899;28;19920;-43
2023/01/05 06:54:07;;;;;;;;;;;;;;;8.66;84.75;100352.66;5094743;28;20018;-44
2023/01/05 06:56:33;;;;;;;;;;;;;;;8.75;84.26;100355.09;5094914;28;19912;-42
2023/01/05 06:58:58;;;;;;;;;;;;;;;8.90;83.83;100349.84;5094877;28;19995;-43
2023/01/05 07:01:23;;;;;;;;;;;;;;;9.11;84.18;100351.03;5094291;28;19946;-44
2023/01/05 07:03:48;;;;;;;;;;;;;;;9.47;82.59;100350.34;5086945;28;19956;-42
2023/01/05 07:06:14;;;;;;;;;;;;;;;9.66;81.12;100341.84;5091058;28;20773;-42
2023/01/05 07:08:39;;;;;;;;;;;;;;;9.59;80.64;100341.78;5073952;28;19970;-43
2023/01/05 07:11:05;;;;;;;;;;;;;;;9.75;80.90;100343.41;5073175;28;19966;-43
2023/01/05 07:13:30;;;;;;;;;;;;;;;9.77;81.72;100341.41;5072952;28;19913;-44
2023/01/05 07:15:55;;;;;;;;;;;;;;;10.17;83.32;100336.59;5072950;28;19913;-44
2023/01/05 07:18:20;;;;;;;;;;;;;;;10.42;79.33;100330.16;5072423;28;19920;-44
2023/01/05 07:20:46;;;;;;;;;;;;;;;10.40;77.88;100322.34;5072610;28;19993;-44
2023/01/05 07:23:11;;;;;;;;;;;;;;;10.36;79.28;100299.81;5073930;28;19959;-44
2023/01/05 07:25:36;;;;;;;;;;;;;;;11.65;77.22;100322.75;5073690;28;19963;-44
2023/01/05 07:28:01;;;;;;;;;;;;;;;12.99;75.31;100314.16;5073818;28;19913;-45
2023/01/05 07:30:27;;;;;;;;;;;;;;;14.19;68.10;100311.25;5073879;28;19961;-43
2023/01/05 07:32:56;;;;;;;;;;;;;;;15.02;62.23;100310.34;5073541;28;19912;-43
2023/01/05 07:35:21;;;;;;;;;;;;;;;15.54;63.28;100310.06;5073350;28;19920;-43
2023/01/05 07:37:46;;;;;;;;;;;;;;;16.26;58.44;100293.34;5073138;28;20020;-43
2023/01/05 07:40:12;;;;;;;;;;;;;;;16.94;55.78;100307.44;5073338;28;19912;-43
2023/01/05 07:42:37;;;;;;;;;;;;;;;17.50;52.90;100294.50;5073280;28;19916;-44
2023/01/05 07:45:02;;;;;;;;;;;;;;;17.62;52.16;100297.16;5073378;28;20282;-43
2023/01/05 07:47:28;;;;;;;;;;;;;;;17.64;52.33;100293.16;5073446;28;20042;-45
2023/01/05 07:49:53;;;;;;;;;;;;;;;17.63;53.40;100293.41;5073236;28;19951;-46
2023/01/05 07:52:19;;;;;;;;;;;;;;;17.95;51.36;100283.91;5073473;28;20364;-44
2023/01/05 07:54:44;;;;;;;;;;;;;;;18.56;48.86;100286.06;5073149;28;20035;-44
2023/01/05 07:57:09;;;;;;;;;;;;;;;18.30;48.49;100279.44;5072877;28;19912;-44
2023/01/05 07:59:34;;;;;;;;;;;;;;;18.29;48.65;100283.97;5073238;28;19950;-44
2023/01/05 08:02:00;;;;;;;;;;;;;;;18.43;47.10;100275.59;5077764;28;20034;-44
2023/01/05 08:04:25;;;;;;;;;;;;;;;18.45;46.86;100276.19;5093443;28;19923;-44
2023/01/05 08:06:51;;;;;;;;;;;;;;;18.42;46.32;100271.28;5093715;28;19961;-44
2023/01/05 08:12:00;;;;;;;;;;;;;;;17.98;47.73;100275.31;5093027;28;19935;-43
2023/01/05 08:14:25;;;;;;;;;;;;;;;17.51;48.58;100275.41;5092819;28;19916;-44
2023/01/05 08:16:50;;;;;;;;;;;;;;;17.77;47.86;100249.03;5092935;28;20010;-43
2023/01/05 08:19:16;;;;;;;;;;;;;;;18.03;47.23;100269.25;5092647;28;19924;-44
2023/01/05 08:21:41;;;;;;;;;;;;;;;18.45;46.48;100258.16;5092936;28;19923;-44
2023/01/05 08:24:07;;;;;;;;;;;;;;;18.72;46.14;100257.53;5092272;28;20103;-45
2023/01/05 08:26:32;;;;;;;;;;;;;;;18.74;44.96;100248.13;5092282;28;19912;-44
2023/01/05 08:28:57;;;;;;;;;;;;;;;18.70;45.74;100248.88;5092546;28;19919;-43
2023/01/05 08:31:24;;;;;;;;;;;;;;;17.72;46.34;100248.94;5092311;28;19919;-42
2023/01/05 08:33:50;;;;;;;;;;;;;;;17.95;46.52;100240.81;5091977;28;20394;-43
2023/01/05 08:36:18;;;;;;;;;;;;;;;17.81;47.40;100234.03;5092251;28;19912;-43
2023/01/05 08:38:49;;;;;;;;;;;;;;;18.32;46.30;100231.53;5091410;28;19919;-43
2023/01/05 08:41:16;;;;;;;;;;;;;;;18.36;46.17;100225.38;5092214;28;19956;-42
2023/01/05 08:43:41;;;;;;;;;;;;;;;18.92;45.45;100220.13;5092534;28;19912;-43
2023/01/05 08:46:07;;;;;;;;;;;;;;;18.87;44.76;100216.53;5092249;28;19916;-42
2023/01/05 08:48:32;;;;;;;;;;;;;;;19.00;44.85;100209.97;5092219;28;19912;-42
2023/01/05 08:51:02;;;;;;;;;;;;;;;19.41;43.73;100207.81;5092356;28;19912;-43
2023/01/05 08:53:28;;;;;;;;;;;;;;;19.23;44.37;100198.13;5092232;28;19920;-43
2023/01/05 08:55:53;;;;;;;;;;;;;;;19.64;44.76;100193.25;5091977;28;19917;-44
2023/01/05 08:58:18;;;;;;;;;;;;;;;19.53;44.85;100193.16;5091717;28;19912;-44
2023/01/05 09:00:43;;;;;;;;;;;;;;;19.81;43.68;100193.22;5091568;28;19916;-43
2023/01/05 09:03:09;;;;;;;;;;;;;;;19.37;43.96;100187.81;5091674;28;19918;-43
2023/01/05 09:05:34;;;;;;;;;;;;;;;19.58;45.30;100183.47;5092145;28;19923;-43
2023/01/05 09:07:59;;;;;;;;;;;;;;;18.62;46.41;100174.63;5091940;28;20396;-43
2023/01/05 09:10:24;;;;;;;;;;;;;;;17.64;47.51;100168.56;5091679;28;19964;-43
2023/01/05 09:12:50;;;;;;;;;;;;;;;18.41;45.66;100162.69;5091569;28;19919;-44
2023/01/05 09:15:15;;;;;;;;;;;;;;;18.77;44.08;100165.91;5091599;28;19916;-42
2023/01/05 09:17:40;;;;;;;;;;;;;;;18.50;44.46;100155.81;5091706;28;19920;-43
2023/01/05 09:20:06;;;;;;;;;;;;;;;19.02;44.60;100152.03;5091291;28;19973;-43
2023/01/05 09:22:33;;;;;;;;;;;;;;;18.01;45.45;100147.50;5091558;28;20307;-42
2023/01/05 09:24:58;;;;;;;;;;;;;;;18.50;45.24;100150.44;5091274;28;20420;-43
2023/01/05 09:27:23;;;;;;;;;;;;;;;18.78;44.28;100150.59;5091192;28;19959;-42
2023/01/05 09:29:49;;;;;;;;;;;;;;;19.58;42.80;100143.78;5091332;28;19948;-43
2023/01/05 09:32:14;;;;;;;;;;;;;;;19.17;41.90;100132.50;5091472;28;19946;-43
2023/01/05 09:34:39;;;;;;;;;;;;;;;18.07;44.50;100127.66;5091465;28;20286;-43
2023/01/05 09:37:05;;;;;;;;;;;;;;;17.75;45.78;100122.78;5091652;28;19964;-45
2023/01/05 09:39:30;;;;;;;;;;;;;;;18.62;43.97;100123.41;5091297;28;19912;-43
2023/01/05 09:41:57;;;;;;;;;;;;;;;18.83;42.29;100107.53;5091378;28;20379;-42
2023/01/05 09:44:37;;;;;;;;;;;;;;;18.95;41.46;100108.25;5091219;28;19969;-43
2023/01/05 09:47:10;;;;;;;;;;;;;;;17.86;43.60;100102.28;5091089;28;19919;-42
2023/01/05 09:49:35;;;;;;;;;;;;;;;18.21;42.36;100095.84;5090925;28;19916;-43
2023/01/05 09:52:07;;;;;;;;;;;;;;;17.87;43.19;100087.75;5090212;28;20007;-42
2023/01/05 09:54:33;;;;;;;;;;;;;;;18.78;42.23;100081.31;5090853;28;19912;-42
2023/01/05 09:56:59;;;;;;;;;;;;;;;18.51;41.50;100087.41;5091162;28;19916;-43
2023/01/05 09:59:32;;;;;;;;;;;;;;;17.48;43.53;100060.66;5091290;28;20285;-43
2023/01/05 10:01:59;;;;;;;;;;;;;;;18.59;42.21;100061.09;5090954;28;20275;-43
2023/01/05 10:04:26;;;;;;;;;;;;;;;18.85;42.44;100048.78;5090810;28;19985;-43
2023/01/05 10:06:52;;;;;;;;;;;;;;;19.67;41.00;100036.19;5090496;28;19916;-42
2023/01/05 10:09:23;;;;;;;;;;;;;;;19.86;39.94;100036.66;5090885;28;19930;-42
2023/01/05 10:14:56;;;;;;;;;;;;;;;18.02;42.71;100016.38;5089419;28;19920;-43
2023/01/05 10:17:22;;;;;;;;;;;;;;;17.68;43.79;100006.38;5090851;28;19912;-42
2023/01/05 10:19:47;;;;;;;;;;;;;;;17.35;44.13;99999.09;5090476;28;19916;-41
2023/01/05 10:22:30;;;;;;;;;;;;;;;17.70;44.56;99996.19;5090390;28;19923;-42
2023/01/05 10:25:01;;;;;;;;;;;;;;;17.69;43.12;99988.38;5090657;28;20391;-43
2023/01/05 10:27:42;;;;;;;;;;;;;;;17.15;44.85;99984.22;5090458;28;20358;-42
2023/01/05 10:30:11;;;;;;;;;;;;;;;18.02;43.55;99986.75;5090367;28;20435;-45
2023/01/05 10:32:50;;;;;;;;;;;;;;;18.52;41.64;99975.03;5089482;28;19912;-43
2023/01/05 10:35:18;;;;;;;;;;;;;;;18.38;41.43;99973.78;5090841;28;19915;-41
2023/01/05 10:37:59;;;;;;;;;;;;;;;17.68;42.71;99973.28;5090855;28;19995;-42
2023/01/05 10:40:43;;;;;;;;;;;;;;;18.19;42.40;99965.19;5090553;28;20358;-42
2023/01/05 10:43:17;;;;;;;;;;;;;;;18.39;41.35;99967.31;5090800;28;20007;-42
2023/01/05 10:45:42;;;;;;;;;;;;;;;19.01;40.76;99952.72;5090468;28;20298;-42
2023/01/05 10:48:15;;;;;;;;;;;;;;;18.32;41.80;99957.53;5090772;28;19912;-42
2023/01/05 10:50:45;;;;;;;;;;;;;;;18.05;41.97;99948.53;5090488;28;19912;-42
2023/01/05 10:53:19;;;;;;;;;;;;;;;18.33;42.13;99947.56;5090474;28;19916;-43
2023/01/05 10:55:53;;;;;;;;;;;;;;;19.04;40.91;99939.53;5090368;28;19916;-42
2023/01/05 10:58:47;;;;;;;;;;;;;;;18.78;40.61;99938.44;5090458;28;19912;-44
2023/01/05 11:01:29;;;;;;;;;;;;;;;18.50;42.15;99934.06;5085507;28;20023;-42
2023/01/05 11:04:15;;;;;;;;;;;;;;;19.24;40.75;99933.50;5093391;28;19995;-42
2023/01/05 11:06:40;;;;;;;;;;;;;;;19.34;40.07;99928.22;5089822;28;19961;-41
2023/01/05 11:09:05;;;;;;;;;;;;;;;18.36;41.37;99915.56;5094078;28;19912;-40
2023/01/05 11:11:31;;;;;;;;;;;;;;;18.50;41.71;99907.09;5094228;28;19912;-41
2023/01/05 11:13:57;;;;;;;;;;;;;;;18.91;40.74;99908.41;5093799;28;20294;-42
2023/01/05 11:16:31;;;;;;;;;;;;;;;18.86;40.41;99875.19;5093706;28;20318;-44
2023/01/05 11:18:56;;;;;;;;;;;;;;;18.31;41.30;99898.53;5093708;28;19993;-42
2023/01/05 11:21:24;;;;;;;;;;;;;;;18.72;40.75;99899.00;5093630;28;20287;-42
2023/01/05 11:23:58;;;;;;;;;;;;;;;19.13;38.80;99894.03;5092956;28;20007;-42
2023/01/05 11:26:28;;;;;;;;;;;;;;;19.51;38.39;99898.41;5093465;28;20315;-42
2023/01/05 11:29:09;;;;;;;;;;;;;;;18.49;39.64;99883.94;5093481;28;20230;-42
2023/01/05 11:31:36;;;;;;;;;;;;;;;18.14;40.79;99877.03;5093744;28;19999;-42
2023/01/05 11:34:14;;;;;;;;;;;;;;;18.90;39.47;99869.00;5093937;28;19919;-41
2023/01/05 11:36:39;;;;;;;;;;;;;;;18.61;39.95;99867.63;5093433;28;20025;-42
2023/01/05 11:39:05;;;;;;;;;;;;;;;18.60;39.95;99863.28;5093186;28;20332;-42
2023/01/05 11:41:31;;;;;;;;;;;;;;;17.84;41.07;99867.50;5093296;28;19938;-43
2023/01/05 11:43:59;;;;;;;;;;;;;;;18.03;41.23;99859.13;5093762;28;19979;-45
2023/01/05 11:46:25;;;;;;;;;;;;;;;18.38;40.62;99852.56;5093849;28;19973;-42
2023/01/05 11:48:55;;;;;;;;;;;;;;;18.28;40.22;99854.06;5093954;28;20353;-42
2023/01/05 11:51:37;;;;;;;;;;;;;;;17.29;42.33;99850.25;5093527;28;19919;-41
2023/01/05 11:54:03;;;;;;;;;;;;;;;17.57;42.31;99853.88;5093271;28;19916;-41
2023/01/05 11:56:28;;;;;;;;;;;;;;;18.41;40.79;99855.56;5093159;28;20513;-43
2023/01/05 11:58:56;;;;;;;;;;;;;;;18.93;39.85;99848.84;5093331;28;19959;-42
2023/01/05 12:01:40;;;;;;;;;;;;;;;17.53;41.86;99850.06;5093437;28;19920;-42
2023/01/05 12:04:17;;;;;;;;;;;;;;;17.41;42.79;99839.41;5093239;28;19995;-43
2023/01/05 12:07:01;;;;;;;;;;;;;;;17.98;41.23;99830.25;5093540;28;20011;-42
2023/01/05 12:09:33;;;;;;;;;;;;;;;17.75;41.59;99815.13;5093197;28;19912;-42
2023/01/05 12:12:13;;;;;;;;;;;;;;;17.48;41.91;99810.47;5092954;28;19951;-41
2023/01/05 12:14:47;;;;;;;;;;;;;;;17.71;41.92;99816.69;5091653;28;20347;-42
2023/01/05 12:17:14;;;;;;;;;;;;;;;18.36;40.71;99818.59;5092573;28;19916;-42
2023/01/05 12:20:03;;;;;;;;;;;;;;;17.74;41.38;99808.13;5092471;28;19923;-42
2023/01/05 12:22:46;;;;;;;;;;;;;;;17.55;41.89;99829.13;5092470;28;20010;-41
2023/01/05 12:25:15;;;;;;;;;;;;;;;18.24;41.20;99817.94;5092245;28;19994;-41
2023/01/05 12:27:43;;;;;;;;;;;;;;;18.64;40.31;99818.59;5092775;28;19912;-41
2023/01/05 12:30:20;;;;;;;;;;;;;;;17.50;42.17;99819.09;5092815;28;19912;-41
2023/01/05 12:33:04;;;;;;;;;;;;;;;17.51;42.28;99803.78;5092445;28;19916;-41
2023/01/05 12:35:36;;;;;;;;;;;;;;;18.32;40.82;99798.63;5092467;28;19919;-43
2023/01/05 12:38:19;;;;;;;;;;;;;;;18.14;40.46;99802.47;5092287;28;19920;-42
2023/01/05 12:40:47;;;;;;;;;;;;;;;17.45;42.07;99797.50;5092186;28;20000;-43
2023/01/05 12:43:21;;;;;;;;;;;;;;;17.98;41.22;99784.50;5092044;28;19957;-42
2023/01/05 12:45:49;;;;;;;;;;;;;;;17.91;41.50;99781.97;5092212;28;19912;-42
2023/01/05 12:48:17;;;;;;;;;;;;;;;17.84;41.04;99786.75;5090899;28;20063;-43
2023/01/05 12:50:48;;;;;;;;;;;;;;;18.41;40.29;99782.00;5092286;28;19912;-42
2023/01/05 12:53:19;;;;;;;;;;;;;;;18.01;41.27;99788.56;5092249;28;19946;-42
2023/01/05 12:55:55;;;;;;;;;;;;;;;18.10;40.64;99779.78;5092240;28;20003;-42
2023/01/05 12:58:36;;;;;;;;;;;;;;;17.49;42.04;99779.00;5092049;28;20378;-42
2023/01/05 13:01:03;;;;;;;;;;;;;;;18.08;41.28;99781.91;5090846;28;19923;-42
2023/01/05 13:03:32;;;;;;;;;;;;;;;18.59;40.18;99784.34;5092111;28;19969;-42
2023/01/05 13:06:24;;;;;;;;;;;;;;;18.70;39.69;99782.56;5091933;28;20391;-42
2023/01/05 13:08:49;;;;;;;;;;;;;;;18.80;39.40;99789.91;5090141;28;20064;-41
2023/01/05 13:11:20;;;;;;;;;;;;;;;18.01;40.37;99781.31;5091523;28;19965;-41
2023/01/05 13:13:51;;;;;;;;;;;;;;;18.39;40.18;99781.44;5092185;28;19916;-42
2023/01/05 13:16:16;;;;;;;;;;;;;;;18.61;39.59;99781.38;5091484;28;19931;-41
2023/01/05 13:18:52;;;;;;;;;;;;;;;18.54;39.30;99786.97;5091590;28;19924;-42
2023/01/05 13:21:19;;;;;;;;;;;;;;;18.38;39.64;99787.91;5091522;28;19923;-42